sensor_id;sensor_type;location;lat;lon;timestamp;pressure;altitude;pressure_sealevel;temperature;humidity
49835;BME280;35729;52.090;13.162;2023-09-08T00:00:43;101602.41;;;17.53;65.23
49835;BME280;35729;52.090;13.162;2023-09-08T00:03:12;101605.16;;;17.50;65.46
49835;BME280;35729;52.090;13.162;2023-09-08T00:05:41;101597.31;;;17.47;65.55
49835;BME280;35729;52.090;13.162;2023-09-08T00:08:09;101599.22;;;17.43;65.85
49835;BME280;35729;52.090;13.162;2023-09-08T00:10:38;101597.59;;;17.39;65.92
49835;BME280;35729;52.090;13.162;2023-09-08T00:13:07;101598.63;;;17.35;66.37
49835;BME280;35729;52.090;13.162;2023-09-08T00:15:36;101595.16;;;17.33;66.51
49835;BME280;35729;52.090;13.162;2023-09-08T00:18:08;101597.06;;;17.29;66.40
49835;BME280;35729;52.090;13.162;2023-09-08T00:20:37;101601.53;;;17.27;66.56
49835;BME280;35729;52.090;13.162;2023-09-08T00:23:07;101592.81;;;17.25;66.59
49835;BME280;35729;52.090;13.162;2023-09-08T00:25:35;101595.47;;;17.23;66.96
49835;BME280;35729;52.090;13.162;2023-09-08T00:28:04;101596.47;;;17.21;66.95
49835;BME280;35729;52.090;13.162;2023-09-08T00:30:33;101595.69;;;17.17;66.88
49835;BME280;35729;52.090;13.162;2023-09-08T00:33:01;101589.59;;;17.15;66.85
49835;BME280;35729;52.090;13.162;2023-09-08T00:35:36;101588.84;;;17.12;67.08
49835;BME280;35729;52.090;13.162;2023-09-08T00:38:05;101587.19;;;17.09;67.38
49835;BME280;35729;52.090;13.162;2023-09-08T00:40:33;101585.50;;;17.06;67.41
49835;BME280;35729;52.090;13.162;2023-09-08T00:43:02;101582.94;;;17.03;67.63
49835;BME280;35729;52.090;13.162;2023-09-08T00:45:30;101590.09;;;17.01;67.81
49835;BME280;35729;52.090;13.162;2023-09-08T00:47:59;101584.03;;;16.98;67.90
49835;BME280;35729;52.090;13.162;2023-09-08T00:50:27;101581.47;;;16.94;67.76
49835;BME280;35729;52.090;13.162;2023-09-08T00:52:58;101590.41;;;16.92;67.95
49835;BME280;35729;52.090;13.162;2023-09-08T00:55:27;101587.84;;;16.89;68.11
49835;BME280;35729;52.090;13.162;2023-09-08T00:57:56;101587.03;;;16.87;68.16
49835;BME280;35729;52.090;13.162;2023-09-08T01:00:25;101579.19;;;16.84;68.40
49835;BME280;35729;52.090;13.162;2023-09-08T01:02:53;101581.94;;;16.81;68.85
49835;BME280;35729;52.090;13.162;2023-09-08T01:05:22;101582.97;;;16.76;68.72
49835;BME280;35729;52.090;13.162;2023-09-08T01:07:51;101581.28;;;16.74;68.79
49835;BME280;35729;52.090;13.162;2023-09-08T01:10:23;101588.47;;;16.70;69.33
49835;BME280;35729;52.090;13.162;2023-09-08T01:12:52;101584.13;;;16.68;69.21
49835;BME280;35729;52.090;13.162;2023-09-08T01:15:20;101583.34;;;16.66;69.25
49835;BME280;35729;52.090;13.162;2023-09-08T01:17:49;101585.22;;;16.62;69.56
49835;BME280;35729;52.090;13.162;2023-09-08T01:20:20;101579.09;;;16.60;69.73
49835;BME280;35729;52.090;13.162;2023-09-08T01:23:13;101581.91;;;16.55;69.54
49835;BME280;35729;52.090;13.162;2023-09-08T01:25:51;101577.56;;;16.53;69.69
49835;BME280;35729;52.090;13.162;2023-09-08T01:28:21;101572.44;;;16.48;70.06
49835;BME280;35729;52.090;13.162;2023-09-08T01:30:51;101573.41;;;16.45;69.99
49835;BME280;35729;52.090;13.162;2023-09-08T01:33:22;101572.72;;;16.39;70.25
49835;BME280;35729;52.090;13.162;2023-09-08T01:35:51;101569.34;;;16.35;70.56
49835;BME280;35729;52.090;13.162;2023-09-08T01:38:21;101564.13;;;16.32;70.54
49835;BME280;35729;52.090;13.162;2023-09-08T01:40:52;101567.75;;;16.29;70.88
49835;BME280;35729;52.090;13.162;2023-09-08T01:43:20;101567.84;;;16.26;70.61
49835;BME280;35729;52.090;13.162;2023-09-08T01:45:49;101561.81;;;16.21;70.98
49835;BME280;35729;52.090;13.162;2023-09-08T01:48:17;101574.31;;;16.18;71.17
49835;BME280;35729;52.090;13.162;2023-09-08T01:50:46;101570.00;;;16.13;71.12
49835;BME280;35729;52.090;13.162;2023-09-08T01:53:15;101562.19;;;16.10;71.51
49835;BME280;35729;52.090;13.162;2023-09-08T01:55:44;101566.69;;;16.07;71.51
49835;BME280;35729;52.090;13.162;2023-09-08T01:58:15;101564.16;;;16.04;71.75
49835;BME280;35729;52.090;13.162;2023-09-08T02:00:43;101551.91;;;16.00;71.66
49835;BME280;35729;52.090;13.162;2023-09-08T02:03:16;101551.16;;;15.96;71.73
49835;BME280;35729;52.090;13.162;2023-09-08T02:05:44;101556.53;;;15.93;72.01
49835;BME280;35729;52.090;13.162;2023-09-08T02:08:13;101554.03;;;15.88;72.23
49835;BME280;35729;52.090;13.162;2023-09-08T02:10:41;101548.84;;;15.85;72.01
49835;BME280;35729;52.090;13.162;2023-09-08T02:13:10;101558.66;;;15.82;72.47
49835;BME280;35729;52.090;13.162;2023-09-08T02:15:41;101551.66;;;15.79;72.47
49835;BME280;35729;52.090;13.162;2023-09-08T02:18:09;101556.13;;;15.77;72.44
49835;BME280;35729;52.090;13.162;2023-09-08T02:20:38;101555.38;;;15.73;72.58
49835;BME280;35729;52.090;13.162;2023-09-08T02:23:07;101549.25;;;15.71;72.82
49835;BME280;35729;52.090;13.162;2023-09-08T02:25:35;101546.69;;;15.68;72.90
49835;BME280;35729;52.090;13.162;2023-09-08T02:28:04;101552.06;;;15.65;73.09
49835;BME280;35729;52.090;13.162;2023-09-08T02:30:33;101552.19;;;15.62;72.93
49835;BME280;35729;52.090;13.162;2023-09-08T02:33:05;101546.06;;;15.60;73.25
49835;BME280;35729;52.090;13.162;2023-09-08T02:35:36;101546.19;;;15.55;73.32
49835;BME280;35729;52.090;13.162;2023-09-08T02:38:05;101548.88;;;15.54;73.49
49835;BME280;35729;52.090;13.162;2023-09-08T02:40:34;101553.38;;;15.50;73.52
49835;BME280;35729;52.090;13.162;2023-09-08T02:43:03;101547.31;;;15.46;73.76
49835;BME280;35729;52.090;13.162;2023-09-08T02:45:32;101546.53;;;15.43;73.80
49835;BME280;35729;52.090;13.162;2023-09-08T02:48:00;101542.22;;;15.40;73.82
49835;BME280;35729;52.090;13.162;2023-09-08T02:50:31;101539.63;;;15.39;74.17
49835;BME280;35729;52.090;13.162;2023-09-08T02:53:00;101537.97;;;15.35;74.15
49835;BME280;35729;52.090;13.162;2023-09-08T02:55:28;101531.91;;;15.31;74.38
49835;BME280;35729;52.090;13.162;2023-09-08T02:57:57;101532.00;;;15.28;74.36
49835;BME280;35729;52.090;13.162;2023-09-08T03:00:26;101534.72;;;15.25;74.55
49835;BME280;35729;52.090;13.162;2023-09-08T03:02:54;101533.09;;;15.21;74.65
49835;BME280;35729;52.090;13.162;2023-09-08T03:05:23;101529.66;;;15.17;74.79
49835;BME280;35729;52.090;13.162;2023-09-08T03:07:54;101530.63;;;15.14;75.13
49835;BME280;35729;52.090;13.162;2023-09-08T03:10:22;101531.56;;;15.12;74.94
49835;BME280;35729;52.090;13.162;2023-09-08T03:12:51;101527.25;;;15.09;75.45
49835;BME280;35729;52.090;13.162;2023-09-08T03:15:20;101533.44;;;15.08;75.26
49835;BME280;35729;52.090;13.162;2023-09-08T03:17:49;101532.59;;;15.06;75.37
49835;BME280;35729;52.090;13.162;2023-09-08T03:20:17;101530.88;;;15.05;75.38
49835;BME280;35729;52.090;13.162;2023-09-08T03:22:46;101527.41;;;15.03;75.51
49835;BME280;35729;52.090;13.162;2023-09-08T03:25:17;101526.56;;;15.01;75.69
49835;BME280;35729;52.090;13.162;2023-09-08T03:27:46;101533.66;;;15.01;75.52
49835;BME280;35729;52.090;13.162;2023-09-08T03:30:14;101528.41;;;14.99;75.98
49835;BME280;35729;52.090;13.162;2023-09-08T03:32:43;101527.63;;;14.95;75.86
49835;BME280;35729;52.090;13.162;2023-09-08T03:35:11;101525.88;;;14.94;75.99
49835;BME280;35729;52.090;13.162;2023-09-08T03:37:39;101527.69;;;14.92;76.27
49835;BME280;35729;52.090;13.162;2023-09-08T03:40:09;101522.50;;;14.89;76.25
49835;BME280;35729;52.090;13.162;2023-09-08T03:42:40;101526.09;;;14.87;76.62
49835;BME280;35729;52.090;13.162;2023-09-08T03:45:10;101519.97;;;14.85;76.45
49835;BME280;35729;52.090;13.162;2023-09-08T03:47:38;101524.47;;;14.82;76.65
49835;BME280;35729;52.090;13.162;2023-09-08T03:50:08;101528.00;;;14.81;76.70
49835;BME280;35729;52.090;13.162;2023-09-08T03:52:38;101521.94;;;14.78;76.60
49835;BME280;35729;52.090;13.162;2023-09-08T03:55:06;101528.13;;;14.77;76.58
49835;BME280;35729;52.090;13.162;2023-09-08T03:57:35;101525.53;;;14.75;76.52
49835;BME280;35729;52.090;13.162;2023-09-08T04:00:07;101522.97;;;14.72;77.01
49835;BME280;35729;52.090;13.162;2023-09-08T04:02:36;101523.03;;;14.69;77.05
49835;BME280;35729;52.090;13.162;2023-09-08T04:05:05;101527.50;;;14.67;76.95
49835;BME280;35729;52.090;13.162;2023-09-08T04:07:35;101524.06;;;14.63;76.58
49835;BME280;35729;52.090;13.162;2023-09-08T04:10:05;101525.03;;;14.59;76.88
49835;BME280;35729;52.090;13.162;2023-09-08T04:12:33;101521.63;;;14.54;76.85
49835;BME280;35729;52.090;13.162;2023-09-08T04:15:02;101527.06;;;14.49;76.83
49835;BME280;35729;52.090;13.162;2023-09-08T04:17:34;101524.53;;;14.45;77.05
49835;BME280;35729;52.090;13.162;2023-09-08T04:20:03;101521.94;;;14.43;77.03
49835;BME280;35729;52.090;13.162;2023-09-08T04:22:33;101529.06;;;14.40;76.96
49835;BME280;35729;52.090;13.162;2023-09-08T04:25:02;101527.34;;;14.37;77.39
49835;BME280;35729;52.090;13.162;2023-09-08T04:27:31;101532.69;;;14.34;77.63
49835;BME280;35729;52.090;13.162;2023-09-08T04:30:02;101531.00;;;14.31;77.45
49835;BME280;35729;52.090;13.162;2023-09-08T04:32:30;101542.50;;;14.29;77.56
49835;BME280;35729;52.090;13.162;2023-09-08T04:35:02;101543.41;;;14.28;77.83
49835;BME280;35729;52.090;13.162;2023-09-08T04:37:30;101536.44;;;14.25;77.88
49835;BME280;35729;52.090;13.162;2023-09-08T04:39:59;101536.53;;;14.22;77.84
49835;BME280;35729;52.090;13.162;2023-09-08T04:42:27;101541.84;;;14.21;78.45
49835;BME280;35729;52.090;13.162;2023-09-08T04:44:56;101547.13;;;14.21;78.39
49835;BME280;35729;52.090;13.162;2023-09-08T04:47:24;101535.72;;;14.18;78.77
49835;BME280;35729;52.090;13.162;2023-09-08T04:49:53;101540.16;;;14.16;78.59
49835;BME280;35729;52.090;13.162;2023-09-08T04:52:24;101536.66;;;14.16;78.93
49835;BME280;35729;52.090;13.162;2023-09-08T04:54:52;101542.00;;;14.14;78.98
49835;BME280;35729;52.090;13.162;2023-09-08T04:57:21;101535.88;;;14.12;79.07
49835;BME280;35729;52.090;13.162;2023-09-08T04:59:49;101531.50;;;14.11;79.13
49835;BME280;35729;52.090;13.162;2023-09-08T05:02:18;101535.91;;;14.11;79.18
49835;BME280;35729;52.090;13.162;2023-09-08T05:04:46;101540.34;;;14.10;79.16
49835;BME280;35729;52.090;13.162;2023-09-08T05:07:15;101535.06;;;14.10;79.28
49835;BME280;35729;52.090;13.162;2023-09-08T05:09:47;101536.84;;;14.08;79.46
49835;BME280;35729;52.090;13.162;2023-09-08T05:12:15;101540.38;;;14.07;79.21
49835;BME280;35729;52.090;13.162;2023-09-08T05:14:44;101543.94;;;14.06;79.33
49835;BME280;35729;52.090;13.162;2023-09-08T05:17:12;101547.44;;;14.07;79.52
49835;BME280;35729;52.090;13.162;2023-09-08T05:19:40;101537.78;;;14.06;79.62
49835;BME280;35729;52.090;13.162;2023-09-08T05:22:09;101540.38;;;14.07;79.46
49835;BME280;35729;52.090;13.162;2023-09-08T05:24:37;101542.97;;;14.09;79.85
49835;BME280;35729;52.090;13.162;2023-09-08T05:27:15;101545.59;;;14.10;79.91
49835;BME280;35729;52.090;13.162;2023-09-08T05:29:50;101545.53;;;14.13;79.67
49835;BME280;35729;52.090;13.162;2023-09-08T05:32:18;101540.16;;;14.16;79.75
49835;BME280;35729;52.090;13.162;2023-09-08T05:34:47;101544.47;;;14.21;79.99
49835;BME280;35729;52.090;13.162;2023-09-08T05:37:15;101540.00;;;14.24;80.02
49835;BME280;35729;52.090;13.162;2023-09-08T05:39:43;101541.66;;;14.28;79.94
49835;BME280;35729;52.090;13.162;2023-09-08T05:42:14;101545.03;;;14.33;79.99
49835;BME280;35729;52.090;13.162;2023-09-08T05:44:43;101544.94;;;14.38;80.17
49835;BME280;35729;52.090;13.162;2023-09-08T05:47:13;101538.63;;;14.44;80.57
49835;BME280;35729;52.090;13.162;2023-09-08T05:49:41;101544.59;;;14.50;80.51
49835;BME280;35729;52.090;13.162;2023-09-08T05:52:10;101534.78;;;14.56;80.67
49835;BME280;35729;52.090;13.162;2023-09-08T05:54:38;101535.53;;;14.62;80.63
49835;BME280;35729;52.090;13.162;2023-09-08T05:57:07;101537.09;;;14.70;80.92
49835;BME280;35729;52.090;13.162;2023-09-08T05:59:38;101544.84;;;14.77;80.65
49835;BME280;35729;52.090;13.162;2023-09-08T06:02:06;101542.03;;;14.83;80.60
49835;BME280;35729;52.090;13.162;2023-09-08T06:04:34;101543.59;;;14.91;80.78
49835;BME280;35729;52.090;13.162;2023-09-08T06:07:03;101534.66;;;14.96;80.57
49835;BME280;35729;52.090;13.162;2023-09-08T06:09:32;101541.47;;;15.05;80.43
49835;BME280;35729;52.090;13.162;2023-09-08T06:12:00;101540.34;;;15.14;80.31
49835;BME280;35729;52.090;13.162;2023-09-08T06:14:29;101543.63;;;15.22;80.28
49835;BME280;35729;52.090;13.162;2023-09-08T06:17:00;101546.94;;;15.29;80.11
49835;BME280;35729;52.090;13.162;2023-09-08T06:19:28;101544.97;;;15.37;80.28
49835;BME280;35729;52.090;13.162;2023-09-08T06:21:57;101545.59;;;15.45;80.16
49835;BME280;35729;52.090;13.162;2023-09-08T06:24:25;101546.22;;;15.54;79.73
49835;BME280;35729;52.090;13.162;2023-09-08T06:26:53;101543.34;;;15.61;79.89
49835;BME280;35729;52.090;13.162;2023-09-08T06:29:22;101546.66;;;15.70;79.84
49835;BME280;35729;52.090;13.162;2023-09-08T06:31:50;101534.09;;;15.76;79.54
49835;BME280;35729;52.090;13.162;2023-09-08T06:34:21;101532.97;;;15.85;79.55
49835;BME280;35729;52.090;13.162;2023-09-08T06:36:50;101538.03;;;15.93;79.41
49835;BME280;35729;52.090;13.162;2023-09-08T06:39:18;101539.50;;;16.02;79.12
49835;BME280;35729;52.090;13.162;2023-09-08T06:41:47;101542.78;;;16.10;78.98
49835;BME280;35729;52.090;13.162;2023-09-08T06:44:15;101543.34;;;16.20;79.19
49835;BME280;35729;52.090;13.162;2023-09-08T06:46:43;101542.19;;;16.28;78.82
49835;BME280;35729;52.090;13.162;2023-09-08T06:49:12;101544.53;;;16.38;78.66
49835;BME280;35729;52.090;13.162;2023-09-08T06:51:50;101542.44;;;16.48;78.57
49835;BME280;35729;52.090;13.162;2023-09-08T06:54:19;101542.13;;;16.57;78.27
49835;BME280;35729;52.090;13.162;2023-09-08T06:56:47;101540.06;;;16.65;77.97
49835;BME280;35729;52.090;13.162;2023-09-08T06:59:15;101540.69;;;16.73;77.92
49835;BME280;35729;52.090;13.162;2023-09-08T07:01:44;101548.31;;;16.83;77.68
49835;BME280;35729;52.090;13.162;2023-09-08T07:04:12;101540.03;;;16.92;77.53
49835;BME280;35729;52.090;13.162;2023-09-08T07:06:41;101545.94;;;17.00;77.34
49835;BME280;35729;52.090;13.162;2023-09-08T07:09:14;101539.44;;;17.09;77.61
49835;BME280;35729;52.090;13.162;2023-09-08T07:11:42;101540.91;;;17.18;77.33
49835;BME280;35729;52.090;13.162;2023-09-08T07:14:08;101537.91;;;17.27;77.06
49835;BME280;35729;52.090;13.162;2023-09-08T07:16:37;101538.50;;;17.35;76.86
49835;BME280;35729;52.090;13.162;2023-09-08T07:19:05;101539.06;;;17.43;76.90
49835;BME280;35729;52.090;13.162;2023-09-08T07:21:34;101535.19;;;17.52;76.44
49835;BME280;35729;52.090;13.162;2023-09-08T07:24:02;101534.88;;;17.60;76.55
49835;BME280;35729;52.090;13.162;2023-09-08T07:26:34;101539.84;;;17.69;76.57
49835;BME280;35729;52.090;13.162;2023-09-08T07:29:02;101541.16;;;17.81;76.50
49835;BME280;35729;52.090;13.162;2023-09-08T07:31:30;101549.63;;;17.91;76.13
49835;BME280;35729;52.090;13.162;2023-09-08T07:33:59;101541.31;;;18.00;75.71
49835;BME280;35729;52.090;13.162;2023-09-08T07:36:27;101544.41;;;18.12;75.42
49835;BME280;35729;52.090;13.162;2023-09-08T07:38:56;101543.09;;;18.22;75.38
49835;BME280;35729;52.090;13.162;2023-09-08T07:41:24;101543.59;;;18.32;75.02
49835;BME280;35729;52.090;13.162;2023-09-08T07:43:55;101538.69;;;18.43;74.80
49835;BME280;35729;52.090;13.162;2023-09-08T07:46:24;101537.25;;;18.56;74.47
49835;BME280;35729;52.090;13.162;2023-09-08T07:48:52;101540.22;;;18.69;73.58
49835;BME280;35729;52.090;13.162;2023-09-08T07:51:21;101538.81;;;18.81;73.46
49835;BME280;35729;52.090;13.162;2023-09-08T07:53:49;101539.25;;;18.93;73.27
49835;BME280;35729;52.090;13.162;2023-09-08T07:56:17;101551.16;;;19.04;72.90
49835;BME280;35729;52.090;13.162;2023-09-08T07:58:46;101546.22;;;19.16;72.70
49835;BME280;35729;52.090;13.162;2023-09-08T08:01:17;101543.94;;;19.27;72.52
49835;BME280;35729;52.090;13.162;2023-09-08T08:03:43;101542.63;;;19.36;72.24
49835;BME280;35729;52.090;13.162;2023-09-08T08:06:11;101545.66;;;19.47;71.70
49835;BME280;35729;52.090;13.162;2023-09-08T08:08:40;101549.69;;;19.56;71.42
49835;BME280;35729;52.090;13.162;2023-09-08T08:11:10;101539.56;;;19.64;71.55
49835;BME280;35729;52.090;13.162;2023-09-08T08:13:38;101547.09;;;19.74;70.90
49835;BME280;35729;52.090;13.162;2023-09-08T08:16:07;101541.38;;;19.83;70.61
49835;BME280;35729;52.090;13.162;2023-09-08T08:18:38;101532.94;;;19.92;70.79
49835;BME280;35729;52.090;13.162;2023-09-08T08:21:07;101533.44;;;20.00;70.03
49835;BME280;35729;52.090;13.162;2023-09-08T08:23:35;101539.94;;;20.12;69.35
49835;BME280;35729;52.090;13.162;2023-09-08T08:26:04;101530.63;;;20.21;68.74
49835;BME280;35729;52.090;13.162;2023-09-08T08:28:32;101537.13;;;20.33;68.60
49835;BME280;35729;52.090;13.162;2023-09-08T08:31:01;101525.94;;;20.44;67.90
49835;BME280;35729;52.090;13.162;2023-09-08T08:33:29;101529.78;;;20.56;67.38
49835;BME280;35729;52.090;13.162;2023-09-08T08:36:00;101523.81;;;20.68;66.30
49835;BME280;35729;52.090;13.162;2023-09-08T08:38:29;101528.47;;;20.82;65.77
49835;BME280;35729;52.090;13.162;2023-09-08T08:41:02;101527.81;;;20.94;65.42
49835;BME280;35729;52.090;13.162;2023-09-08T08:43:31;101528.97;;;21.06;65.20
49835;BME280;35729;52.090;13.162;2023-09-08T08:46:01;101524.69;;;21.20;64.53
49835;BME280;35729;52.090;13.162;2023-09-08T08:48:31;101524.97;;;21.31;64.01
49835;BME280;35729;52.090;13.162;2023-09-08T08:51:03;101533.06;;;21.45;63.10
49835;BME280;35729;52.090;13.162;2023-09-08T08:53:33;101528.72;;;21.60;62.67
49835;BME280;35729;52.090;13.162;2023-09-08T08:58:34;101527.34;;;21.85;61.86
49835;BME280;35729;52.090;13.162;2023-09-08T09:01:03;101517.06;;;21.93;61.74
49835;BME280;35729;52.090;13.162;2023-09-08T09:03:33;101513.97;;;22.01;61.13
49835;BME280;35729;52.090;13.162;2023-09-08T09:06:06;101517.81;;;22.11;60.44
49835;BME280;35729;52.090;13.162;2023-09-08T09:08:34;101512.78;;;22.21;60.32
49835;BME280;35729;52.090;13.162;2023-09-08T09:11:03;101516.56;;;22.33;59.93
49835;BME280;35729;52.090;13.162;2023-09-08T09:13:32;101511.56;;;22.43;59.37
49835;BME280;35729;52.090;13.162;2023-09-08T09:16:01;101510.81;;;22.55;58.99
49835;BME280;35729;52.090;13.162;2023-09-08T09:18:32;101515.63;;;22.65;58.77
49835;BME280;35729;52.090;13.162;2023-09-08T09:21:01;101518.47;;;22.76;58.48
49835;BME280;35729;52.090;13.162;2023-09-08T09:23:34;101510.88;;;22.84;57.94
49835;BME280;35729;52.090;13.162;2023-09-08T09:26:03;101505.91;;;22.92;57.65
49835;BME280;35729;52.090;13.162;2023-09-08T09:28:32;101506.28;;;23.01;57.38
49835;BME280;35729;52.090;13.162;2023-09-08T09:31:00;101510.09;;;23.11;57.55
49835;BME280;35729;52.090;13.162;2023-09-08T09:33:29;101510.31;;;23.22;56.81
49835;BME280;35729;52.090;13.162;2023-09-08T09:35:58;101506.97;;;23.33;56.33
49835;BME280;35729;52.090;13.162;2023-09-08T09:38:27;101508.09;;;23.43;56.25
49835;BME280;35729;52.090;13.162;2023-09-08T09:40:58;101505.69;;;23.53;55.66
49835;BME280;35729;52.090;13.162;2023-09-08T09:43:28;101505.94;;;23.63;55.53
49835;BME280;35729;52.090;13.162;2023-09-08T09:45:57;101499.69;;;23.77;55.13
49835;BME280;35729;52.090;13.162;2023-09-08T09:48:26;101496.19;;;23.89;54.12
49835;BME280;35729;52.090;13.162;2023-09-08T09:50:56;101489.09;;;24.03;53.31
49835;BME280;35729;52.090;13.162;2023-09-08T09:53:24;101483.75;;;24.16;53.12
49835;BME280;35729;52.090;13.162;2023-09-08T09:55:53;101484.66;;;24.29;52.16
49835;BME280;35729;52.090;13.162;2023-09-08T09:58:25;101482.09;;;24.40;51.77
49835;BME280;35729;52.090;13.162;2023-09-08T10:00:54;101484.97;;;24.50;51.56
49835;BME280;35729;52.090;13.162;2023-09-08T10:03:23;101485.44;;;24.57;51.11
49835;BME280;35729;52.090;13.162;2023-09-08T10:05:53;101485.78;;;24.65;51.24
49835;BME280;35729;52.090;13.162;2023-09-08T10:08:22;101479.78;;;24.75;50.77
49835;BME280;35729;52.090;13.162;2023-09-08T10:10:51;101479.25;;;24.82;50.26
49835;BME280;35729;52.090;13.162;2023-09-08T10:13:27;101483.19;;;24.89;48.91
49835;BME280;35729;52.090;13.162;2023-09-08T10:15:58;101470.22;;;24.96;49.07
49835;BME280;35729;52.090;13.162;2023-09-08T10:18:27;101471.69;;;25.00;49.36
49835;BME280;35729;52.090;13.162;2023-09-08T10:20:57;101471.25;;;25.07;48.75
49835;BME280;35729;52.090;13.162;2023-09-08T10:23:33;101475.22;;;25.14;49.10
49835;BME280;35729;52.090;13.162;2023-09-08T10:26:05;101471.97;;;25.21;49.05
49835;BME280;35729;52.090;13.162;2023-09-08T10:28:40;101466.69;;;25.33;48.47
49835;BME280;35729;52.090;13.162;2023-09-08T10:31:09;101471.41;;;25.42;48.05
49835;BME280;35729;52.090;13.162;2023-09-08T10:33:38;101463.75;;;25.49;47.48
49835;BME280;35729;52.090;13.162;2023-09-08T10:36:08;101457.06;;;25.55;46.51
49835;BME280;35729;52.090;13.162;2023-09-08T10:38:37;101447.47;;;25.63;46.80
49835;BME280;35729;52.090;13.162;2023-09-08T10:41:28;101457.41;;;25.74;45.88
49835;BME280;35729;52.090;13.162;2023-09-08T10:44:07;101457.94;;;25.79;45.19
49835;BME280;35729;52.090;13.162;2023-09-08T10:46:36;101461.03;;;25.86;44.78
49835;BME280;35729;52.090;13.162;2023-09-08T10:49:06;101457.75;;;25.94;44.59
49835;BME280;35729;52.090;13.162;2023-09-08T10:51:35;101451.91;;;26.00;44.08
49835;BME280;35729;52.090;13.162;2023-09-08T10:54:04;101451.47;;;26.06;43.96
49835;BME280;35729;52.090;13.162;2023-09-08T10:56:54;101450.13;;;26.12;43.62
49835;BME280;35729;52.090;13.162;2023-09-08T10:59:34;101449.53;;;26.20;44.10
49835;BME280;35729;52.090;13.162;2023-09-08T11:02:04;101449.06;;;26.26;43.74
49835;BME280;35729;52.090;13.162;2023-09-08T11:04:34;101445.06;;;26.31;43.61
49835;BME280;35729;52.090;13.162;2023-09-08T11:07:03;101444.69;;;26.36;43.45
49835;BME280;35729;52.090;13.162;2023-09-08T11:09:35;101450.47;;;26.43;42.79
49835;BME280;35729;52.090;13.162;2023-09-08T11:12:05;101450.09;;;26.47;42.55
49835;BME280;35729;52.090;13.162;2023-09-08T11:14:37;101444.00;;;26.57;42.56
49835;BME280;35729;52.090;13.162;2023-09-08T11:17:06;101447.06;;;26.63;42.31
49835;BME280;35729;52.090;13.162;2023-09-08T11:19:45;101442.03;;;26.70;41.87
49835;BME280;35729;52.090;13.162;2023-09-08T11:22:14;101446.84;;;26.78;41.98
49835;BME280;35729;52.090;13.162;2023-09-08T11:24:43;101442.69;;;26.85;41.56
49835;BME280;35729;52.090;13.162;2023-09-08T11:27:12;101438.53;;;26.92;41.67
49835;BME280;35729;52.090;13.162;2023-09-08T11:29:44;101439.00;;;26.97;41.26
49835;BME280;35729;52.090;13.162;2023-09-08T11:32:12;101443.75;;;27.05;41.35
49835;BME280;35729;52.090;13.162;2023-09-08T11:34:41;101433.34;;;27.12;41.07
49835;BME280;35729;52.090;13.162;2023-09-08T11:37:10;101431.03;;;27.19;40.97
49835;BME280;35729;52.090;13.162;2023-09-08T11:39:39;101424.13;;;27.26;41.07
49835;BME280;35729;52.090;13.162;2023-09-08T11:42:08;101425.22;;;27.35;40.44
49835;BME280;35729;52.090;13.162;2023-09-08T11:44:38;101422.66;;;27.44;40.50
49835;BME280;35729;52.090;13.162;2023-09-08T11:47:10;101420.19;;;27.53;39.75
49835;BME280;35729;52.090;13.162;2023-09-08T11:49:40;101418.56;;;27.61;40.09
49835;BME280;35729;52.090;13.162;2023-09-08T11:52:15;101417.78;;;27.71;39.42
49835;BME280;35729;52.090;13.162;2023-09-08T11:54:44;101415.19;;;27.80;39.35
49835;BME280;35729;52.090;13.162;2023-09-08T11:57:13;101412.66;;;27.89;39.27
49835;BME280;35729;52.090;13.162;2023-09-08T11:59:42;101416.28;;;27.99;39.07
49835;BME280;35729;52.090;13.162;2023-09-08T12:02:16;101406.47;;;28.09;39.13
49835;BME280;35729;52.090;13.162;2023-09-08T12:04:45;101413.47;;;28.22;38.83
49835;BME280;35729;52.090;13.162;2023-09-08T12:07:13;101411.16;;;28.38;38.82
49835;BME280;35729;52.090;13.162;2023-09-08T12:09:45;101411.28;;;28.58;38.38
49835;BME280;35729;52.090;13.162;2023-09-08T12:12:13;101412.94;;;28.80;38.00
49835;BME280;35729;52.090;13.162;2023-09-08T12:14:42;101416.28;;;29.03;37.71
49835;BME280;35729;52.090;13.162;2023-09-08T12:17:11;101412.25;;;29.29;37.16
49835;BME280;35729;52.090;13.162;2023-09-08T12:19:45;101415.28;;;29.55;36.38
49835;BME280;35729;52.090;13.162;2023-09-08T12:22:13;101404.59;;;29.83;35.89
49835;BME280;35729;52.090;13.162;2023-09-08T12:24:48;101407.28;;;30.12;35.30
49835;BME280;35729;52.090;13.162;2023-09-08T12:27:18;101406.50;;;30.39;34.70
49835;BME280;35729;52.090;13.162;2023-09-08T12:29:54;101409.28;;;30.67;34.24
49835;BME280;35729;52.090;13.162;2023-09-08T12:32:25;101400.88;;;30.88;34.06
49835;BME280;35729;52.090;13.162;2023-09-08T12:34:56;101394.38;;;31.09;34.20
49835;BME280;35729;52.090;13.162;2023-09-08T12:37:27;101389.53;;;31.31;34.08
49835;BME280;35729;52.090;13.162;2023-09-08T12:39:57;101383.63;;;31.54;33.94
49835;BME280;35729;52.090;13.162;2023-09-08T12:42:26;101380.75;;;31.73;33.63
49835;BME280;35729;52.090;13.162;2023-09-08T12:44:55;101378.72;;;31.93;33.65
49835;BME280;35729;52.090;13.162;2023-09-08T12:47:23;101365.94;;;32.12;33.37
49835;BME280;35729;52.090;13.162;2023-09-08T12:49:52;101364.72;;;32.32;32.78
49835;BME280;35729;52.090;13.162;2023-09-08T12:52:23;101364.81;;;32.49;32.32
49835;BME280;35729;52.090;13.162;2023-09-08T12:54:52;101361.31;;;32.65;32.30